Terminal Aerodrome Forecast
Issued by NWS

Home | Current Version | Previous Version | Graphics & Text | Print | Product List | Glossary On
Versions: 1 2 3 4 5 6 7 8 9 10 11 12 13 14 15 16 17 18 19 20 21
000
FTUS44 KLZK 211700
TAFLIT
TAF
KLIT 211728Z 2118/2218 30008KT P6SM VCSH BKN050 OVC100
     FM212300 33008KT P6SM VCSH BKN050 BKN100
     FM220300 36005KT P6SM SCT100
     FM220600 02005KT P6SM SKC=

USA.gov is the U.S. government's official web portal to all federal, state and local government web resources and services.